Airfield :
LOGIN :

Register | Disclaimer

   EN    FR    IT 

 










Legend :    VFR   Marginal VFR   IFR   Intensive IFR   Very Intensive IFR
Visi :
Ceiling :
>= 8 km
>= 3000ft
5 to 8 km
1000 to 3000 ft
1500m to 5 km
500 to 1000 ft
800 to 1500m
200 to 500 ft
< 800m
< 200 ft
Symbols :   Thunderstorms  Fog  Heavy snow  Heavy precipitations  Wind > 20 kt
SIGMETs :     Misc.  Thunderstorms  Icing  Turbulence  Mountain Waves  Volcanic Ashes







- Airport Elevation : 102 ft
- IATA code : CNG
- Download approach charts


LFBG - Cognac

CURRENT METAR :
  • 200830Z AUTO 07003KT 3000 BR FEW005 OVC042 06/05 Q1012

EXPIRED METARs :
  • 200800Z AUTO 09002KT 2600 BR FEW005 OVC043 05/05 Q1012
  • 200730Z AUTO 05003KT 1400 1000 R23/1300N BR BKN043/// OVC049/// ///TCU 05/05 Q1011
  • 200700Z AUTO 11003KT 2600 BR FEW047/// SCT064/// BKN084/// ///TCU 05/05 Q1011
  • 200630Z AUTO 11003KT 2100 BR FEW001/// BKN041/// OVC080/// ///TCU 05/05 Q1011
  • 200600Z AUTO 18003KT 2800 BR FEW015/// SCT028/// BKN036/// ///CB 06/05 Q1011

Expired Forecast.
No reported NOTAMs for that airfield.



MET'MAP, your aeronautical weather chart ! - Copyright ORBIFLY December 2007 - Disclaimer

ORBIFLY MET'MAP TEAM :

Programming & Development : Alexandra Zaïnal
Concept & Development : Baudouin d'Aumeries
Co-Development & Prog : Marc-Olivier Méhu
Technical & hardware support : Manuel Goepfert

Contact : metmap@orbifly.com




SOURCES & CREDITS :

   NOAA